Time;durP1;ratioP1;P1;durP2;ratioP2;P2;SDS_P1;SDS_P2;PMS_P1;PMS_P2;Temp;Humidity;BMP_temperature;BMP_pressure;BME280_temperature;BME280_humidity;BME280_pressure;Samples;Min_cycle;Max_cycle;Signal;HPM_P1;HPM_P2
2022/04/07 00:01:30;;;;;;;1.05;0.90;;;;;;;11.82;83.90;98539.03;8283878;28;20711;-65
2022/04/07 00:05:30;;;;;;;2.53;0.80;;;;;;;11.76;84.28;98525.44;8288224;28;20049;-65
2022/04/07 00:09:31;;;;;;;4.22;1.10;;;;;;;11.75;83.87;98530.00;8291102;28;20046;-65
2022/04/07 00:13:31;;;;;;;2.88;0.95;;;;;;;11.66;84.68;98531.22;8293759;28;20046;-66
2022/04/07 00:17:32;;;;;;;1.05;0.65;;;;;;;11.61;84.31;98527.38;8286306;28;20529;-65
2022/04/07 00:21:41;;;;;;;2.63;0.70;;;;;;;11.62;84.36;98524.50;8302388;28;20044;-65
2022/04/07 00:25:41;;;;;;;2.25;0.90;;;;;;;11.66;84.03;98514.13;8293873;28;20540;-65
2022/04/07 00:29:41;;;;;;;2.38;0.70;;;;;;;11.61;84.07;98508.41;8293114;28;20548;-65
2022/04/07 00:33:42;;;;;;;2.80;0.80;;;;;;;11.54;84.28;98494.84;8293303;28;20091;-65
2022/04/07 00:37:43;;;;;;;0.77;0.45;;;;;;;11.54;84.36;98505.69;8291997;28;20042;-65
2022/04/07 00:41:45;;;;;;;4.53;0.88;;;;;;;11.62;83.61;98492.03;8292244;28;20422;-66
2022/04/07 00:45:46;;;;;;;2.08;0.70;;;;;;;11.65;84.23;98486.22;8293731;28;20045;-65
2022/04/07 00:49:46;;;;;;;1.65;0.80;;;;;;;11.60;85.23;98477.84;8300104;28;20037;-66
2022/04/07 00:53:46;;;;;;;1.95;0.90;;;;;;;11.45;86.27;98463.56;8296273;28;20124;-65
2022/04/07 00:57:47;;;;;;;3.30;1.02;;;;;;;11.27;87.15;98455.09;8296495;28;20041;-65
2022/04/07 01:01:48;;;;;;;1.10;0.60;;;;;;;11.19;87.81;98452.50;8290041;28;20441;-66
2022/04/07 01:05:50;;;;;;;1.00;0.60;;;;;;;11.31;86.80;98456.34;8292520;28;20037;-66
2022/04/07 01:09:51;;;;;;;4.20;0.80;;;;;;;11.45;85.69;98447.31;8297114;28;20048;-65
2022/04/07 01:13:52;;;;;;;1.10;0.60;;;;;;;11.54;84.80;98440.75;8309749;28;20434;-65
2022/04/07 01:17:55;;;;;;;1.05;0.60;;;;;;;11.54;84.42;98419.09;8290149;28;20038;-66
2022/04/07 01:21:56;;;;;;;5.55;0.95;;;;;;;11.56;83.78;98421.59;8306735;28;20401;-66
2022/04/07 01:25:56;;;;;;;2.17;0.50;;;;;;;11.54;83.39;98413.69;8323420;28;20046;-66
2022/04/07 01:30:01;;;;;;;1.05;0.57;;;;;;;11.61;83.14;98403.72;8323345;28;20516;-65
2022/04/07 01:34:05;;;;;;;1.65;0.70;;;;;;;11.59;83.58;98399.56;8322853;28;20447;-65
2022/04/07 01:38:05;;;;;;;2.30;0.60;;;;;;;11.63;83.46;98407.09;8320985;28;20460;-65
2022/04/07 01:42:08;;;;;;;1.73;0.60;;;;;;;11.73;83.01;98402.16;8320217;28;20033;-65
2022/04/07 01:46:12;;;;;;;1.95;0.60;;;;;;;11.76;82.28;98379.28;8322314;28;20064;-65
2022/04/07 01:50:15;;;;;;;2.77;0.50;;;;;;;11.82;81.66;98373.06;8316740;28;20033;-65
2022/04/07 01:54:15;;;;;;;3.30;0.60;;;;;;;11.80;82.11;98365.13;8289197;28;20123;-65
2022/04/07 01:58:18;;;;;;;3.70;0.63;;;;;;;11.86;81.47;98375.16;8282519;28;20121;-65
2022/04/07 02:02:19;;;;;;;1.10;0.50;;;;;;;11.86;82.02;98360.78;8286394;28;20781;-65
2022/04/07 02:06:19;;;;;;;3.33;0.60;;;;;;;11.81;82.07;98360.56;8290412;28;20034;-65
2022/04/07 02:10:21;;;;;;;0.40;0.32;;;;;;;11.81;82.28;98361.38;8290704;28;20180;-65
2022/04/07 02:14:21;;;;;;;2.40;0.50;;;;;;;11.87;81.75;98352.47;8299740;28;20407;-65
2022/04/07 02:18:22;;;;;;;2.03;0.77;;;;;;;11.89;81.59;98358.50;8321127;28;20045;-65
2022/04/07 02:22:23;;;;;;;2.28;0.60;;;;;;;11.77;82.11;98356.56;8302304;28;20037;-65
2022/04/07 02:26:23;;;;;;;2.72;0.63;;;;;;;11.81;82.61;98344.31;8288616;28;20042;-65
2022/04/07 02:30:23;;;;;;;2.22;0.50;;;;;;;11.80;83.09;98331.81;8289155;28;20045;-65
2022/04/07 02:34:24;;;;;;;1.95;0.52;;;;;;;11.80;83.48;98338.06;8290102;28;20403;-65
2022/04/07 02:38:24;;;;;;;2.17;0.40;;;;;;;11.69;84.39;98333.22;8288456;28;20037;-65
2022/04/07 02:42:24;;;;;;;1.02;0.38;;;;;;;11.56;85.44;98314.19;8288890;28;20497;-65
2022/04/07 02:46:25;;;;;;;4.57;0.70;;;;;;;11.56;85.58;98313.38;8288858;28;20060;-65
2022/04/07 02:50:25;;;;;;;2.22;0.50;;;;;;;11.56;85.12;98308.75;8287253;28;20075;-65
2022/04/07 02:54:26;;;;;;;2.63;0.50;;;;;;;11.60;84.48;98298.38;8291987;28;20042;-65
2022/04/07 02:58:26;;;;;;;3.95;0.70;;;;;;;11.61;84.51;98289.22;8293557;28;20113;-65
2022/04/07 03:02:27;;;;;;;1.70;0.40;;;;;;;11.61;84.98;98295.47;8292111;28;20046;-65
2022/04/07 03:06:28;;;;;;;1.80;0.50;;;;;;;11.59;85.38;98292.13;8284565;28;20046;-65
2022/04/07 03:10:29;;;;;;;4.13;0.77;;;;;;;11.64;85.13;98278.88;8283541;28;20088;-65
2022/04/07 03:14:29;;;;;;;3.83;0.80;;;;;;;11.63;85.46;98277.22;8285479;28;20084;-65
2022/04/07 03:18:30;;;;;;;2.33;0.60;;;;;;;11.62;85.49;98253.06;8290081;28;20064;-65
2022/04/07 03:22:30;;;;;;;1.65;0.60;;;;;;;11.58;86.09;98247.16;8293048;28;20041;-65
2022/04/07 03:26:32;;;;;;;2.50;0.80;;;;;;;11.59;86.13;98232.59;8292844;28;20118;-65
2022/04/07 03:30:32;;;;;;;1.38;0.75;;;;;;;11.56;86.38;98221.38;8292864;28;20042;-65
2022/04/07 03:34:36;;;;;;;1.75;0.55;;;;;;;11.56;86.04;98222.19;8292337;28;20038;-65
2022/04/07 03:38:38;;;;;;;3.10;0.60;;;;;;;11.56;85.77;98200.53;8290687;28;20445;-65
2022/04/07 03:42:38;;;;;;;1.08;0.60;;;;;;;11.70;84.16;98188.75;8291667;28;20038;-65
2022/04/07 03:46:39;;;;;;;1.63;0.50;;;;;;;11.71;84.23;98187.69;8298681;28;20048;-65
2022/04/07 03:50:40;;;;;;;4.80;0.57;;;;;;;11.74;84.13;98167.50;8304962;28;20092;-65
2022/04/07 03:54:41;;;;;;;3.80;0.50;;;;;;;11.69;84.53;98157.28;8299006;28;20494;-65
2022/04/07 03:58:42;;;;;;;3.53;1.15;;;;;;;11.75;84.67;98161.06;8298372;28;20465;-65
2022/04/07 04:02:42;;;;;;;1.60;0.40;;;;;;;11.73;84.89;98158.56;8299893;28;20045;-65
2022/04/07 04:06:43;;;;;;;3.38;0.50;;;;;;;11.58;86.25;98133.53;8306813;28;20060;-65
2022/04/07 04:10:43;;;;;;;0.73;0.30;;;;;;;11.48;87.27;98127.69;8326379;28;20168;-65
2022/04/07 04:14:43;;;;;;;0.70;0.28;;;;;;;11.48;87.93;98124.97;8288263;28;20056;-65
2022/04/07 04:18:44;;;;;;;0.93;0.30;;;;;;;11.42;89.21;98120.38;8300265;28;20069;-65
2022/04/07 04:22:44;;;;;;;1.80;0.40;;;;;;;11.32;90.74;98103.69;8306801;28;20402;-65
2022/04/07 04:26:45;;;;;;;1.17;0.20;;;;;;;11.28;91.83;98099.75;8292955;28;20475;-65
2022/04/07 04:30:45;;;;;;;0.65;0.50;;;;;;;11.24;92.31;98076.84;8297820;28;20038;-65
2022/04/07 04:34:46;;;;;;;0.82;0.60;;;;;;;11.25;92.19;98067.69;8278935;28;20034;-65
2022/04/07 04:38:47;;;;;;;1.65;0.50;;;;;;;11.24;92.12;98059.78;8295908;28;20061;-65
2022/04/07 04:42:47;;;;;;;0.80;0.50;;;;;;;11.30;91.81;98062.50;8295159;28;20034;-65
2022/04/07 04:46:47;;;;;;;0.40;0.33;;;;;;;11.41;90.92;98058.38;8295325;28;20042;-65
2022/04/07 04:50:48;;;;;;;1.15;0.43;;;;;;;11.46;90.46;98053.16;8290294;28;20304;-65
2022/04/07 04:54:48;;;;;;;2.33;0.70;;;;;;;11.54;89.89;98039.44;8287698;28;20112;-65
2022/04/07 04:58:49;;;;;;;1.13;0.40;;;;;;;11.52;90.77;98036.94;8303764;28;20069;-65
2022/04/07 05:02:49;;;;;;;2.05;0.60;;;;;;;11.45;92.08;98019.03;8315561;28;20289;-65
2022/04/07 05:06:50;;;;;;;2.00;0.50;;;;;;;11.41;93.09;98010.50;8303041;28;20038;-65
2022/04/07 05:10:50;;;;;;;2.85;0.70;;;;;;;11.49;91.86;98010.31;8273643;28;20044;-65
2022/04/07 05:14:51;;;;;;;1.48;0.50;;;;;;;11.56;90.88;97999.50;8321978;28;20091;-65
2022/04/07 05:18:52;;;;;;;2.95;0.80;;;;;;;11.61;90.85;98003.22;8292193;28;20040;-65
2022/04/07 05:22:52;;;;;;;5.65;0.80;;;;;;;11.62;90.99;97998.69;8292696;28;20042;-65
2022/04/07 05:26:53;;;;;;;5.32;0.88;;;;;;;11.61;91.46;97980.75;8313291;28;20037;-65
2022/04/07 05:30:53;;;;;;;6.45;0.60;;;;;;;11.58;91.82;97973.03;8287582;28;20091;-65
2022/04/07 05:34:54;;;;;;;9.07;1.08;;;;;;;11.55;92.82;97965.34;8286750;28;20354;-65
2022/04/07 05:38:54;;;;;;;3.30;0.60;;;;;;;11.46;93.77;97956.63;8292008;28;20399;-65
2022/04/07 05:42:56;;;;;;;4.50;0.47;;;;;;;11.41;94.11;97956.41;8285187;28;20046;-63
2022/04/07 05:46:56;;;;;;;1.48;0.45;;;;;;;11.41;94.27;97952.88;8305025;28;20450;-65
2022/04/07 05:50:56;;;;;;;2.50;0.30;;;;;;;11.39;94.59;97947.69;8293901;28;20123;-65
2022/04/07 05:54:57;;;;;;;2.30;0.52;;;;;;;11.40;95.40;97935.81;8292077;28;20030;-65
2022/04/07 05:58:57;;;;;;;5.90;1.23;;;;;;;11.37;94.82;97935.38;8283808;28;20052;-66
2022/04/07 06:02:58;;;;;;;1.67;0.40;;;;;;;11.41;94.11;97918.53;8317711;28;20030;-65
2022/04/07 06:06:58;;;;;;;1.33;0.40;;;;;;;11.36;94.72;97907.53;8300798;28;20041;-65
2022/04/07 06:10:59;;;;;;;1.70;0.70;;;;;;;11.24;96.71;97906.50;8323687;28;20029;-65
2022/04/07 06:14:59;;;;;;;1.70;0.60;;;;;;;11.11;98.99;97897.53;8305789;28;20052;-65
2022/04/07 06:19:00;;;;;;;3.15;0.57;;;;;;;11.06;99.79;97892.75;8322529;28;20069;-65
2022/04/07 06:23:00;;;;;;;2.42;0.70;;;;;;;11.08;100.00;97885.28;8301221;28;20407;-65
2022/04/07 06:27:01;;;;;;;15.65;1.92;;;;;;;11.11;100.00;97865.94;8292747;28;20041;-65
2022/04/07 06:31:01;;;;;;;3.40;0.70;;;;;;;11.13;99.68;97853.03;8292030;28;20033;-65
2022/04/07 06:35:02;;;;;;;0.85;0.32;;;;;;;11.29;97.14;97847.19;8324409;28;20037;-65
2022/04/07 06:39:03;;;;;;;2.10;0.40;;;;;;;11.36;96.24;97831.78;8323672;28;20092;-65
2022/04/07 06:43:03;;;;;;;1.98;0.43;;;;;;;11.38;95.63;97818.06;8324769;28;20038;-65
2022/04/07 06:47:04;;;;;;;3.97;0.30;;;;;;;11.38;94.96;97808.06;8323726;28;20148;-65
2022/04/07 06:51:04;;;;;;;1.30;0.57;;;;;;;11.44;94.28;97788.28;8315474;28;20490;-65
2022/04/07 06:55:06;;;;;;;0.82;0.40;;;;;;;11.47;95.17;97760.78;8293870;28;20038;-65
2022/04/07 06:59:07;;;;;;;0.35;0.30;;;;;;;11.64;93.58;97751.19;8291936;28;20038;-65
2022/04/07 07:03:07;;;;;;;0.55;0.20;;;;;;;11.80;92.13;97731.75;8292691;28;20065;-65
2022/04/07 07:07:10;;;;;;;1.33;0.20;;;;;;;11.93;92.18;97727.31;8306510;28;20038;-65
2022/04/07 07:11:11;;;;;;;0.40;0.25;;;;;;;11.90;91.32;97720.47;8291215;28;20120;-65
2022/04/07 07:15:11;;;;;;;1.48;0.20;;;;;;;11.70;94.85;97708.91;8293488;28;20042;-65
2022/04/07 07:19:14;;;;;;;0.57;0.15;;;;;;;11.38;99.09;97689.03;8298691;28;20041;-65
2022/04/07 07:23:15;;;;;;;0.45;0.20;;;;;;;11.37;99.81;97684.69;8306315;28;20045;-65
2022/04/07 07:27:16;;;;;;;0.25;0.20;;;;;;;11.50;99.79;97659.47;8293404;28;20042;-65
2022/04/07 07:31:16;;;;;;;3.50;0.22;;;;;;;11.77;97.63;97634.75;8299058;28;20045;-65
2022/04/07 07:35:19;;;;;;;2.28;0.20;;;;;;;11.89;96.04;97615.94;8300995;28;20038;-65
2022/04/07 07:39:20;;;;;;;4.18;0.50;;;;;;;12.13;95.25;97614.31;8298751;28;20041;-65
2022/04/07 07:43:21;;;;;;;0.40;0.20;;;;;;;12.20;92.85;97612.38;8296663;28;20046;-63
2022/04/07 07:47:21;;;;;;;0.43;0.20;;;;;;;12.15;93.89;97598.66;8298466;28;20096;-65
2022/04/07 07:51:22;;;;;;;0.35;0.10;;;;;;;12.08;96.52;97574.38;8309264;28;20052;-65
2022/04/07 07:55:22;;;;;;;0.17;0.15;;;;;;;12.09;97.87;97567.03;8297530;28;20358;-65
2022/04/07 07:59:23;;;;;;;0.45;0.10;;;;;;;12.24;97.81;97548.56;8323626;28;20046;-66
2022/04/07 08:03:24;;;;;;;0.95;0.10;;;;;;;12.56;95.35;97545.50;8328204;28;20414;-65
2022/04/07 08:07:24;;;;;;;0.73;0.17;;;;;;;12.73;94.25;97551.16;8301757;28;20113;-65
2022/04/07 08:11:25;;;;;;;0.10;0.10;;;;;;;12.75;93.52;97530.09;8295390;28;20654;-65
2022/04/07 08:15:27;;;;;;;0.10;0.10;;;;;;;12.67;96.08;97541.22;8297195;28;20049;-65
2022/04/07 08:19:27;;;;;;;0.55;0.20;;;;;;;12.83;96.15;97513.50;8316058;28;20509;-65
2022/04/07 08:23:28;;;;;;;0.17;0.10;;;;;;;12.96;95.36;97526.91;8301337;28;20499;-65
2022/04/07 08:27:28;;;;;;;0.13;0.10;;;;;;;13.04;93.87;97507.63;8296669;28;20038;-65
2022/04/07 08:31:29;;;;;;;0.65;0.10;;;;;;;13.24;93.09;97494.63;8296050;28;20064;-65
2022/04/07 08:35:30;;;;;;;0.00;0.00;;;;;;;13.47;92.90;97508.25;8296618;28;20092;-65
2022/04/07 08:39:30;;;;;;;0.40;0.10;;;;;;;13.56;92.34;97506.84;8296041;28;20037;-65
2022/04/07 08:43:33;;;;;;;1.45;0.20;;;;;;;13.53;92.29;97512.75;8299935;28;20038;-65
2022/04/07 08:47:34;;;;;;;0.85;0.20;;;;;;;13.48;93.80;97507.22;8281078;28;20046;-65
2022/04/07 08:51:35;;;;;;;0.60;0.10;;;;;;;13.11;99.23;97492.91;8309002;28;20037;-65
2022/04/07 08:55:36;;;;;;;1.08;0.10;;;;;;;12.94;100.00;97458.50;8310699;28;20045;-65
2022/04/07 08:59:36;;;;;;;1.17;0.13;;;;;;;13.11;100.00;97452.22;8305482;28;20091;-65
2022/04/07 09:03:37;;;;;;;1.30;0.10;;;;;;;13.55;97.47;97457.16;8298985;28;20125;-65
2022/04/07 09:07:37;;;;;;;0.38;0.10;;;;;;;14.30;94.47;97432.88;8303008;28;20048;-65
2022/04/07 09:11:38;;;;;;;0.50;0.13;;;;;;;15.26;90.71;97430.97;8298681;28;20037;-65
2022/04/07 09:15:38;;;;;;;0.08;0.08;;;;;;;15.45;87.61;97411.47;8305386;28;20069;-65
2022/04/07 09:19:39;;;;;;;1.80;0.10;;;;;;;16.02;84.11;97411.25;8297490;28;20034;-65
2022/04/07 09:23:40;;;;;;;0.10;0.10;;;;;;;15.66;83.69;97410.72;8263498;28;20293;-65
2022/04/07 09:27:41;;;;;;;1.98;0.10;;;;;;;15.31;86.13;97396.47;8306499;28;20649;-65
2022/04/07 09:31:51;;;;;;;0.50;0.17;;;;;;;15.32;88.89;97400.88;8294301;28;20030;-65
2022/04/07 09:36:10;;;;;;;0.10;0.10;;;;;;;15.84;86.96;97397.91;8293907;28;20049;-65
2022/04/07 09:40:13;;;;;;;0.43;0.20;;;;;;;15.41;87.29;97404.84;8292899;28;20034;-65
2022/04/07 09:44:19;;;;;;;0.15;0.10;;;;;;;14.88;91.70;97409.06;8289658;28;20038;-65
2022/04/07 09:48:19;;;;;;;0.32;0.17;;;;;;;14.92;92.22;97383.84;8293616;28;20037;-65
2022/04/07 09:52:21;;;;;;;0.10;0.08;;;;;;;14.86;91.71;97390.25;8283327;28;20398;-65
2022/04/07 09:56:27;;;;;;;0.90;0.08;;;;;;;14.49;93.56;97383.53;8294707;28;20463;-65
2022/04/07 10:00:28;;;;;;;2.85;0.20;;;;;;;14.20;96.47;97394.56;8305352;28;20490;-65
2022/04/07 10:04:29;;;;;;;0.00;0.00;;;;;;;13.98;94.39;97386.25;8289208;28;20127;-65
2022/04/07 10:08:31;;;;;;;1.75;0.20;;;;;;;13.91;94.50;97387.44;8273733;28;20045;-66
2022/04/07 10:12:33;;;;;;;0.17;0.10;;;;;;;13.80;94.59;97399.94;8278050;28;20045;-66
2022/04/07 10:16:33;;;;;;;0.10;0.00;;;;;;;13.51;97.87;97430.75;8278275;28;20313;-66
2022/04/07 10:20:39;;;;;;;3.72;0.17;;;;;;;13.17;100.00;97461.31;8286578;28;20544;-65
2022/04/07 10:24:46;;;;;;;1.42;0.30;;;;;;;12.58;100.00;97464.00;8292143;28;20034;-65
2022/04/07 10:28:54;;;;;;;2.70;0.75;;;;;;;12.19;100.00;97478.84;8280364;28;20541;-63
2022/04/07 10:32:58;;;;;;;3.13;0.30;;;;;;;11.78;100.00;97501.09;8281623;28;20505;-63
2022/04/07 10:37:03;;;;;;;1.38;0.45;;;;;;;11.44;100.00;97509.66;8280640;28;20586;-63
2022/04/07 10:41:03;;;;;;;1.13;0.22;;;;;;;11.31;100.00;97525.16;8291285;28;20050;-66
2022/04/07 10:45:05;;;;;;;1.63;0.50;;;;;;;11.37;100.00;97519.72;8290921;28;20046;-66
2022/04/07 10:49:08;;;;;;;2.88;0.30;;;;;;;11.35;100.00;97516.41;8287667;28;20065;-66
2022/04/07 10:53:32;;;;;;;1.58;0.73;;;;;;;11.33;100.00;97526.63;8279678;28;20043;-65
2022/04/07 10:57:33;;;;;;;2.42;1.00;;;;;;;12.17;95.17;97518.84;8284796;28;20521;-65
2022/04/07 11:06:00;;;;;;;0.85;0.40;;;;;;;12.42;84.11;97540.47;8408572;27;20396;-64
2022/04/07 11:14:13;;;;;;;0.28;0.20;;;;;;;14.48;70.61;97511.50;8382294;27;20467;-65
2022/04/07 11:18:28;;;;;;;0.63;0.10;;;;;;;16.18;63.80;97516.66;8325965;28;20359;-65
2022/04/07 11:23:06;;;;;;;2.25;0.13;;;;;;;18.13;57.25;97513.56;8341204;28;20040;-65
2022/04/07 11:27:35;;;;;;;0.28;0.20;;;;;;;18.41;53.01;97509.69;8332629;28;20193;-65
2022/04/07 11:31:45;;;;;;;1.02;0.22;;;;;;;18.45;52.43;97519.84;8316760;28;20038;-65
2022/04/07 11:40:13;;;;;;;1.30;0.40;;;;;;;18.00;53.09;97546.84;8386936;27;20378;-64
2022/04/07 11:44:17;;;;;;;1.33;0.35;;;;;;;18.55;53.73;97552.78;8381911;28;20327;-64
2022/04/07 11:48:18;;;;;;;1.90;0.40;;;;;;;18.44;54.69;97542.00;8380170;28;20432;-64
2022/04/07 11:52:35;;;;;;;1.48;0.30;;;;;;;19.56;53.95;97556.00;8375621;28;20298;-64
2022/04/07 11:56:38;;;;;;;1.08;0.38;;;;;;;19.62;52.21;97563.16;8348548;28;20163;-64
2022/04/07 12:00:38;;;;;;;0.50;0.40;;;;;;;19.72;52.75;97571.38;8362728;28;20036;-64
2022/04/07 12:04:40;;;;;;;1.50;0.40;;;;;;;18.43;52.09;97563.06;8373434;28;20068;-63
2022/04/07 12:08:40;;;;;;;0.90;0.50;;;;;;;18.44;53.17;97561.97;8378717;28;20319;-60
2022/04/07 12:12:42;;;;;;;1.00;0.40;;;;;;;17.92;51.80;97579.25;8379579;28;20043;-63
2022/04/07 12:16:45;;;;;;;3.03;0.43;;;;;;;17.42;50.74;97588.53;8372802;28;20683;-63
2022/04/07 12:20:58;;;;;;;2.75;0.50;;;;;;;16.35;52.31;97607.47;8368987;28;20041;-63
2022/04/07 12:25:03;;;;;;;7.25;1.20;;;;;;;15.68;54.96;97601.91;8340342;28;20044;-63
2022/04/07 12:29:05;;;;;;;6.95;0.95;;;;;;;15.46;58.03;97620.00;8339091;28;20121;-63
2022/04/07 12:33:05;;;;;;;2.25;0.60;;;;;;;15.19;57.88;97623.50;8321650;28;20045;-65
2022/04/07 12:37:06;;;;;;;3.70;1.10;;;;;;;15.10;57.44;97619.50;8312960;28;20041;-65
2022/04/07 12:41:13;;;;;;;4.38;0.80;;;;;;;15.05;60.20;97639.25;8335319;28;20043;-65
2022/04/07 12:45:14;;;;;;;4.25;0.60;;;;;;;14.60;58.51;97635.50;8340087;28;20072;-65
2022/04/07 12:49:22;;;;;;;3.83;0.82;;;;;;;14.91;58.35;97647.91;8322583;28;20516;-65
2022/04/07 12:53:29;;;;;;;5.45;1.00;;;;;;;14.98;56.95;97643.97;8311219;28;20043;-64
2022/04/07 12:57:32;;;;;;;3.25;0.85;;;;;;;14.81;57.87;97648.50;8318930;28;20514;-64
2022/04/07 13:01:33;;;;;;;5.30;1.05;;;;;;;14.89;59.44;97659.03;8316085;28;20045;-64
2022/04/07 13:05:35;;;;;;;4.22;1.08;;;;;;;14.89;58.01;97661.75;8317919;28;20052;-64
2022/04/07 13:09:36;;;;;;;5.43;0.80;;;;;;;14.74;56.58;97663.28;8315921;28;20521;-64
2022/04/07 13:13:36;;;;;;;6.40;0.90;;;;;;;14.88;58.08;97659.28;8320083;28;20112;-64
2022/04/07 13:17:36;;;;;;;6.38;1.13;;;;;;;14.99;56.31;97651.09;8322284;28;20044;-64
2022/04/07 13:21:39;;;;;;;5.70;1.15;;;;;;;15.12;56.43;97661.72;8316078;28;20450;-64
2022/04/07 13:25:40;;;;;;;5.18;1.00;;;;;;;15.19;55.05;97659.69;8321793;28;20033;-64
2022/04/07 13:29:40;;;;;;;6.65;1.23;;;;;;;15.09;57.15;97666.78;8323532;28;20234;-64
2022/04/07 13:33:41;;;;;;;10.80;1.13;;;;;;;14.80;56.81;97671.34;8323369;28;20052;-64
2022/04/07 13:37:41;;;;;;;9.43;1.52;;;;;;;14.56;56.09;97685.13;8323412;28;20049;-64
2022/04/07 13:41:42;;;;;;;5.97;1.40;;;;;;;14.45;56.58;97670.47;8322527;28;20398;-64
2022/04/07 13:45:45;;;;;;;5.32;1.40;;;;;;;14.57;56.79;97674.03;8321187;28;20061;-65
2022/04/07 13:49:45;;;;;;;6.55;0.90;;;;;;;14.39;57.07;97693.16;8321185;28;20537;-64
2022/04/07 13:53:45;;;;;;;5.50;1.13;;;;;;;14.17;56.70;97689.28;8318185;28;20410;-64
2022/04/07 13:57:46;;;;;;;6.60;1.15;;;;;;;13.99;56.94;97702.94;8320918;28;20116;-65
2022/04/07 14:01:47;;;;;;;6.22;1.27;;;;;;;13.78;57.56;97698.00;8321441;28;20041;-64
2022/04/07 14:05:47;;;;;;;5.97;1.10;;;;;;;13.61;61.45;97694.28;8321230;28;20045;-64
2022/04/07 14:09:48;;;;;;;6.88;1.10;;;;;;;14.19;59.73;97686.34;8319982;28;20478;-64
2022/04/07 14:13:49;;;;;;;9.15;1.20;;;;;;;14.39;56.53;97698.59;8320523;28;20040;-64
2022/04/07 14:17:49;;;;;;;7.47;1.63;;;;;;;14.64;56.43;97712.81;8322023;28;20061;-64
2022/04/07 14:21:50;;;;;;;7.38;1.58;;;;;;;14.36;54.89;97720.78;8321085;28;20477;-64
2022/04/07 14:25:50;;;;;;;6.07;1.50;;;;;;;14.29;57.13;97720.06;8321649;28;20068;-64
2022/04/07 14:29:51;;;;;;;10.23;1.50;;;;;;;14.06;56.85;97741.69;8319777;28;20087;-64
2022/04/07 14:33:52;;;;;;;11.07;1.63;;;;;;;13.82;55.93;97751.63;8321349;28;20030;-64
2022/04/07 14:37:52;;;;;;;10.30;1.67;;;;;;;13.80;56.88;97747.47;8321171;28;20045;-65
2022/04/07 14:41:54;;;;;;;11.20;1.95;;;;;;;13.20;62.26;97783.66;8309604;28;20049;-65
2022/04/07 14:45:55;;;;;;;12.02;1.98;;;;;;;12.07;73.72;97810.16;8315723;28;20504;-65
2022/04/07 14:49:55;;;;;;;10.23;1.20;;;;;;;11.01;80.29;97805.22;8314707;28;20402;-65
2022/04/07 14:53:56;;;;;;;14.65;1.83;;;;;;;11.01;80.04;97800.63;8318757;28;20112;-65
2022/04/07 14:57:57;;;;;;;9.23;1.20;;;;;;;11.49;72.72;97826.34;8320007;28;20040;-65
2022/04/07 15:01:57;;;;;;;8.48;1.67;;;;;;;11.67;69.41;97831.09;8318997;28;20098;-65
2022/04/07 15:05:57;;;;;;;8.20;1.58;;;;;;;11.03;74.33;97830.16;8319904;28;20033;-65
2022/04/07 15:09:58;;;;;;;8.38;1.85;;;;;;;11.19;75.40;97814.34;8302831;28;20037;-65
2022/04/07 15:13:58;;;;;;;7.00;1.55;;;;;;;11.72;70.15;97815.88;8320099;28;20033;-65
2022/04/07 15:17:59;;;;;;;9.55;1.80;;;;;;;12.22;65.04;97813.38;8319693;28;20088;-65
2022/04/07 15:21:59;;;;;;;10.38;1.95;;;;;;;12.42;64.99;97822.22;8319016;28;20077;-65
2022/04/07 15:26:00;;;;;;;15.18;1.90;;;;;;;12.61;63.77;97829.38;8319642;28;20045;-66
2022/04/07 15:30:00;;;;;;;17.33;2.15;;;;;;;12.62;64.24;97855.44;8319396;28;20466;-66
2022/04/07 15:34:01;;;;;;;9.27;1.45;;;;;;;12.29;63.42;97822.31;8319383;28;20041;-65
2022/04/07 15:38:01;;;;;;;11.80;2.20;;;;;;;11.65;69.78;97858.38;8316568;28;20038;-65
2022/04/07 15:42:02;;;;;;;13.48;2.03;;;;;;;11.49;71.75;97850.69;8318141;28;20540;-66
2022/04/07 15:46:02;;;;;;;13.88;2.03;;;;;;;11.41;73.53;97861.72;8319285;28;20524;-66
2022/04/07 15:50:05;;;;;;;10.30;1.70;;;;;;;11.63;68.77;97874.03;8318580;28;20079;-66
2022/04/07 15:54:06;;;;;;;5.55;0.90;;;;;;;11.80;65.58;97848.13;8316490;28;20379;-66
2022/04/07 15:58:06;;;;;;;5.57;0.93;;;;;;;12.04;64.22;97846.59;8318376;28;20122;-66
2022/04/07 16:02:07;;;;;;;11.93;1.48;;;;;;;12.29;64.31;97852.09;8318544;28;20821;-66
2022/04/07 16:06:07;;;;;;;12.70;1.80;;;;;;;12.58;62.15;97854.22;8318372;28;20038;-66
2022/04/07 16:10:10;;;;;;;11.30;1.85;;;;;;;12.73;60.13;97858.28;8319452;28;20038;-66
2022/04/07 16:14:11;;;;;;;15.73;2.33;;;;;;;12.74;59.48;97870.78;8301941;28;20056;-66
2022/04/07 16:18:11;;;;;;;11.27;1.60;;;;;;;12.60;58.93;97852.13;8319597;28;20045;-66
2022/04/07 16:22:12;;;;;;;10.48;1.58;;;;;;;12.64;58.24;97853.34;8316011;28;20636;-66
2022/04/07 16:26:12;;;;;;;11.10;1.98;;;;;;;12.77;59.41;97896.63;8319277;28;20036;-66
2022/04/07 16:30:15;;;;;;;8.15;1.58;;;;;;;12.95;59.13;97897.53;8324066;28;20560;-66
2022/04/07 16:34:17;;;;;;;10.98;2.10;;;;;;;12.77;58.78;97896.63;8323415;28;20052;-66
2022/04/07 16:38:17;;;;;;;10.80;1.50;;;;;;;12.52;59.50;97914.69;8324346;28;20055;-66
2022/04/07 16:42:18;;;;;;;11.18;1.55;;;;;;;12.64;59.91;97899.41;8323155;28;20049;-66
2022/04/07 16:46:18;;;;;;;9.30;1.20;;;;;;;12.63;60.19;97905.91;8324294;28;20105;-66
2022/04/07 16:50:19;;;;;;;9.13;1.55;;;;;;;12.57;59.32;97906.75;8321197;28;20029;-66
2022/04/07 16:54:19;;;;;;;6.72;1.15;;;;;;;12.58;58.86;97924.69;8321643;28;20053;-66
2022/04/07 16:58:20;;;;;;;12.77;1.85;;;;;;;12.54;59.24;97937.00;8322204;28;20060;-66
2022/04/07 17:02:20;;;;;;;12.30;2.00;;;;;;;12.53;59.43;97938.06;8322112;28;20445;-66
2022/04/07 17:06:22;;;;;;;9.65;1.90;;;;;;;12.44;57.81;97926.63;8321691;28;20555;-66
2022/04/07 17:10:23;;;;;;;15.63;1.60;;;;;;;12.34;58.42;97933.53;8321143;28;20045;-66
2022/04/07 17:14:23;;;;;;;7.85;1.73;;;;;;;12.31;58.60;97961.06;8323147;28;20034;-66
2022/04/07 17:18:24;;;;;;;8.93;1.85;;;;;;;12.19;59.51;97962.75;8301665;28;20397;-66
2022/04/07 17:22:24;;;;;;;11.43;2.30;;;;;;;12.10;59.86;97977.59;8318264;28;20257;-66
2022/04/07 17:26:24;;;;;;;9.55;2.05;;;;;;;12.06;59.91;97966.34;8317292;28;20037;-66
2022/04/07 17:30:28;;;;;;;7.75;1.23;;;;;;;11.98;59.34;97971.97;8312999;28;20490;-66
2022/04/07 17:34:29;;;;;;;14.18;2.08;;;;;;;11.90;59.66;97975.75;8318092;28;20049;-66
2022/04/07 17:38:30;;;;;;;6.65;1.33;;;;;;;11.95;59.71;97971.59;8316842;28;20131;-66
2022/04/07 17:42:31;;;;;;;12.10;2.45;;;;;;;11.87;59.84;97992.41;8317872;28;20084;-66
2022/04/07 17:46:32;;;;;;;11.25;2.03;;;;;;;11.82;60.04;97997.63;8299602;28;20686;-66
2022/04/07 17:50:34;;;;;;;11.25;1.98;;;;;;;11.69;60.96;98004.94;8316618;28;20064;-66
2022/04/07 17:54:34;;;;;;;9.10;1.38;;;;;;;11.61;61.06;97987.00;8318262;28;20652;-66
2022/04/07 17:58:35;;;;;;;14.55;2.13;;;;;;;11.65;60.30;98031.56;8318041;28;20825;-66
2022/04/07 18:02:35;;;;;;;12.70;1.83;;;;;;;11.64;61.28;98021.78;8317059;28;20046;-66
2022/04/07 18:06:37;;;;;;;12.45;1.90;;;;;;;11.58;61.44;98046.94;8315342;28;20045;-66
2022/04/07 18:10:38;;;;;;;10.98;1.70;;;;;;;11.55;61.36;98062.75;8317868;28;20470;-66
2022/04/07 18:14:39;;;;;;;9.75;2.20;;;;;;;11.43;63.04;98043.59;8316794;28;20041;-66
2022/04/07 18:18:40;;;;;;;7.30;1.58;;;;;;;11.27;63.83;98068.34;8316791;28;20592;-65
2022/04/07 18:22:43;;;;;;;10.98;1.55;;;;;;;11.18;64.46;98071.41;8315689;28;20184;-66
2022/04/07 18:26:43;;;;;;;11.27;2.22;;;;;;;11.46;61.92;98072.94;8315577;28;20033;-66
2022/04/07 18:30:44;;;;;;;7.88;1.80;;;;;;;11.33;62.35;98075.63;8310739;28;20049;-65
2022/04/07 18:34:45;;;;;;;19.00;2.35;;;;;;;11.30;62.37;98103.09;8313666;28;20137;-65
2022/04/07 18:38:45;;;;;;;18.88;2.33;;;;;;;11.21;63.08;98116.97;8313263;28;20299;-65
2022/04/07 18:42:45;;;;;;;18.98;2.25;;;;;;;11.36;62.06;98126.59;8314157;28;20037;-65
2022/04/07 18:46:46;;;;;;;14.45;2.53;;;;;;;11.19;67.36;98176.66;8313411;28;20038;-65
2022/04/07 18:50:46;;;;;;;11.57;1.75;;;;;;;9.92;76.91;98192.38;8316439;28;20033;-65
2022/04/07 18:54:46;;;;;;;10.80;1.95;;;;;;;9.68;78.48;98178.44;8317634;28;20053;-65
2022/04/07 18:58:47;;;;;;;12.00;2.42;;;;;;;9.67;77.79;98171.41;8315494;28;20525;-65
2022/04/07 19:02:47;;;;;;;16.92;2.47;;;;;;;9.88;75.12;98163.28;8316156;28;20049;-66
2022/04/07 19:06:48;;;;;;;25.35;2.20;;;;;;;10.18;72.84;98161.31;8317515;28;20029;-66